createdAt,value
2019-04-26T00:00:02.302Z,0
2019-04-26T00:00:42.864Z,0
2019-04-26T00:01:23.436Z,0
2019-04-26T00:02:03.997Z,0
2019-04-26T00:08:09.456Z,0
2019-04-26T00:08:49.810Z,0
2019-04-26T00:09:30.379Z,0
2019-04-26T00:10:11.748Z,0
2019-04-26T00:10:51.520Z,0
2019-04-26T00:11:32.087Z,0
2019-04-26T00:12:12.640Z,0
2019-04-26T00:12:53.194Z,0
2019-04-26T00:13:33.800Z,0
2019-04-26T00:20:19.524Z,0
2019-04-26T00:21:00.148Z,0
2019-04-26T00:21:40.733Z,0
2019-04-26T00:22:21.309Z,0
2019-04-26T00:23:01.863Z,0
2019-04-26T00:23:42.440Z,0
2019-04-26T00:24:23.064Z,0
2019-04-26T00:25:03.615Z,0
2019-04-26T00:25:50.821Z,0
2019-04-26T00:26:31.403Z,0
2019-04-26T00:27:12.706Z,0
2019-04-26T00:27:52.563Z,0
2019-04-26T00:31:15.440Z,0
2019-04-26T00:31:56.009Z,0
2019-04-26T00:32:36.623Z,0
2019-04-26T00:33:17.548Z,0
2019-04-26T00:33:58.100Z,0
2019-04-26T00:34:38.659Z,0
2019-04-26T00:35:19.882Z,0
2019-04-26T00:35:59.918Z,0
2019-04-26T00:42:45.673Z,0
2019-04-26T00:43:26.236Z,0
2019-04-26T00:44:06.826Z,0
2019-04-26T00:44:47.376Z,0
2019-04-26T00:45:27.971Z,0
2019-04-26T00:46:08.525Z,0
2019-04-26T00:46:49.115Z,0
2019-04-26T00:47:29.670Z,0
2019-04-26T00:48:10.245Z,0
2019-04-26T00:54:15.526Z,0
2019-04-26T00:54:55.967Z,0
2019-04-26T00:55:36.514Z,0
2019-04-26T00:56:17.930Z,0
2019-04-26T00:56:57.632Z,0
2019-04-26T00:57:38.187Z,0
2019-04-26T00:58:18.800Z,0
2019-04-26T00:58:59.327Z,0
2019-04-26T00:59:39.888Z,0
2019-04-26T01:06:25.486Z,0
2019-04-26T01:07:06.053Z,0
2019-04-26T01:07:46.628Z,0
2019-04-26T01:11:26.104Z,0
2019-04-26T01:12:06.630Z,0
2019-04-26T01:12:47.188Z,0
2019-04-26T01:13:27.736Z,0
2019-04-26T01:17:31.117Z,0
2019-04-26T01:18:11.678Z,0
2019-04-26T01:18:52.231Z,0
2019-04-26T01:19:32.784Z,0
2019-04-26T01:20:13.357Z,0
2019-04-26T01:20:53.912Z,0
2019-04-26T01:21:34.454Z,0
2019-04-26T01:22:15.015Z,0
2019-04-26T01:22:55.572Z,0
2019-04-26T01:28:11.170Z,0
2019-04-26T01:28:51.737Z,0
2019-04-26T01:29:32.301Z,0
2019-04-26T01:30:12.865Z,0
2019-04-26T01:33:36.293Z,0
2019-04-26T01:34:17.728Z,0
2019-04-26T01:34:57.434Z,0
2019-04-26T01:35:37.994Z,0
2019-04-26T01:36:19.445Z,0
2019-04-26T01:36:59.097Z,0
2019-04-26T01:37:39.660Z,0
2019-04-26T01:38:20.657Z,0
2019-04-26T01:39:00.797Z,0
2019-04-26T01:45:05.981Z,0
2019-04-26T01:45:46.549Z,0
2019-04-26T01:46:27.109Z,0
2019-04-26T01:47:07.671Z,0
2019-04-26T01:47:48.222Z,0
2019-04-26T01:48:29.217Z,0
2019-04-26T01:49:09.366Z,0
2019-04-26T01:49:49.937Z,0
2019-04-26T01:50:31.626Z,0
2019-04-26T01:58:29.277Z,0
2019-04-26T01:59:08.913Z,0
2019-04-26T01:59:49.465Z,0
2019-04-26T02:00:30.034Z,0
2019-04-26T02:03:52.941Z,0
2019-04-26T02:04:33.516Z,0
2019-04-26T02:05:14.062Z,0
2019-04-26T02:05:54.648Z,0
2019-04-26T02:06:35.373Z,0
2019-04-26T02:07:15.773Z,0
2019-04-26T02:07:56.339Z,0
2019-04-26T02:08:36.919Z,0
2019-04-26T02:09:17.487Z,0
2019-04-26T02:16:03.133Z,0
2019-04-26T02:16:43.699Z,0
2019-04-26T02:17:25.340Z,0
2019-04-26T02:18:04.844Z,0
2019-04-26T02:18:45.441Z,0
2019-04-26T02:19:26.013Z,0
2019-04-26T02:20:06.566Z,0
2019-04-26T02:20:47.124Z,0
2019-04-26T02:21:27.949Z,0
2019-04-26T02:28:13.312Z,0
2019-04-26T02:28:53.877Z,0
2019-04-26T02:29:34.734Z,0
2019-04-26T02:30:15.008Z,0
2019-04-26T02:30:55.677Z,0
2019-04-26T02:31:37.706Z,0
2019-04-26T02:32:16.782Z,0
2019-04-26T02:32:57.344Z,0
2019-04-26T02:39:43.416Z,0
2019-04-26T02:40:24.022Z,0
2019-04-26T02:41:04.581Z,0
2019-04-26T02:41:45.172Z,0
2019-04-26T02:42:26.528Z,0
2019-04-26T02:43:06.292Z,0
2019-04-26T02:43:46.847Z,0
2019-04-26T02:44:28.778Z,0
2019-04-26T02:45:07.972Z,0
2019-04-26T02:51:13.082Z,0
2019-04-26T02:51:53.659Z,0
2019-04-26T02:52:35.828Z,0
2019-04-26T02:53:14.784Z,0
2019-04-26T02:53:55.358Z,0
2019-04-26T02:54:36.553Z,0
2019-04-26T02:55:16.515Z,0
2019-04-26T02:55:57.080Z,0
2019-04-26T02:56:39.530Z,0
2019-04-26T03:03:23.277Z,0
2019-04-26T03:04:03.832Z,0
2019-04-26T03:04:44.400Z,0
2019-04-26T03:05:24.959Z,0
2019-04-26T03:06:05.522Z,0
2019-04-26T03:07:02.124Z,0
2019-04-26T03:07:26.655Z,0
2019-04-26T03:08:07.217Z,0
2019-04-26T03:08:47.771Z,0
2019-04-26T03:15:34.173Z,0
2019-04-26T03:16:13.973Z,0
2019-04-26T03:16:54.541Z,0
2019-04-26T03:17:36.059Z,0
2019-04-26T03:18:15.650Z,0
2019-04-26T03:18:56.199Z,0
2019-04-26T03:19:38.120Z,0
2019-04-26T03:20:17.325Z,0
2019-04-26T03:20:57.885Z,0
2019-04-26T03:27:02.972Z,0
2019-04-26T03:27:43.691Z,0
2019-04-26T03:28:24.097Z,0
2019-04-26T03:29:04.654Z,0
2019-04-26T03:32:50.195Z,0
2019-04-26T03:33:25.229Z,0
2019-04-26T03:34:06.062Z,0
2019-04-26T03:34:52.780Z,0
2019-04-26T03:38:09.089Z,0
2019-04-26T03:38:49.659Z,0
2019-04-26T03:39:30.216Z,0
2019-04-26T03:40:10.788Z,0
2019-04-26T03:40:51.345Z,0
2019-04-26T03:41:34.288Z,0
2019-04-26T03:42:12.459Z,0
2019-04-26T03:42:53.020Z,0
2019-04-26T03:43:34.921Z,0
2019-04-26T03:49:39.802Z,0
2019-04-26T03:50:19.266Z,5
2019-04-26T03:50:59.828Z,5
2019-04-26T03:51:41.129Z,5
2019-04-26T03:52:20.998Z,5
2019-04-26T03:53:01.556Z,5
2019-04-26T03:53:43.866Z,5
2019-04-26T03:54:22.806Z,5
2019-04-26T03:55:03.381Z,5
2019-04-26T04:01:49.076Z,10
2019-04-26T04:02:29.637Z,10
2019-04-26T04:03:10.331Z,10
2019-04-26T04:03:50.921Z,10
2019-04-26T04:04:31.494Z,10
2019-04-26T04:05:12.063Z,10
2019-04-26T04:05:52.616Z,10
2019-04-26T04:06:48.650Z,10
2019-04-26T04:13:19.157Z,15
2019-04-26T04:13:59.784Z,15
2019-04-26T04:14:41.915Z,15
2019-04-26T04:15:20.891Z,15
2019-04-26T04:16:01.436Z,20
2019-04-26T04:16:43.378Z,20
2019-04-26T04:17:22.550Z,20
2019-04-26T04:18:03.113Z,20
2019-04-26T04:24:48.899Z,30
2019-04-26T04:25:29.457Z,35
2019-04-26T04:26:10.021Z,35
2019-04-26T04:26:50.570Z,35
2019-04-26T04:27:31.125Z,35
2019-04-26T04:28:11.680Z,35
2019-04-26T04:28:52.245Z,40
2019-04-26T04:29:40.709Z,40
2019-04-26T04:30:13.399Z,40
2019-04-26T04:36:59.014Z,45
2019-04-26T04:37:53.197Z,45
2019-04-26T04:38:20.144Z,45
2019-04-26T04:39:10.908Z,45
2019-04-26T04:39:42.647Z,45
2019-04-26T04:40:21.816Z,45
2019-04-26T04:41:02.381Z,45
2019-04-26T04:41:43.031Z,45
2019-04-26T04:42:23.499Z,45
2019-04-26T04:48:28.951Z,45
2019-04-26T04:49:09.605Z,45
2019-04-26T04:49:52.158Z,45
2019-04-26T04:50:31.134Z,45
2019-04-26T04:51:11.754Z,45
2019-04-26T04:51:52.314Z,45
2019-04-26T04:52:32.870Z,50
2019-04-26T04:53:13.432Z,50
2019-04-26T04:59:59.056Z,60
2019-04-26T05:00:39.618Z,60
2019-04-26T05:01:20.177Z,65
2019-04-26T05:02:00.746Z,65
2019-04-26T05:02:42.417Z,65
2019-04-26T05:03:21.881Z,65
2019-04-26T05:04:02.576Z,70
2019-04-26T05:04:44.132Z,70
2019-04-26T05:11:28.775Z,85
2019-04-26T05:12:09.349Z,85
2019-04-26T05:12:50.007Z,90
2019-04-26T05:13:30.503Z,90
2019-04-26T05:14:11.070Z,90
2019-04-26T05:14:52.222Z,95
2019-04-26T05:15:32.259Z,95
2019-04-26T05:16:12.826Z,100
2019-04-26T05:16:54.571Z,100
2019-04-26T05:23:39.090Z,115
2019-04-26T05:24:19.677Z,115
2019-04-26T05:25:00.241Z,115
2019-04-26T05:25:40.794Z,115
2019-04-26T05:26:21.433Z,115
2019-04-26T05:27:01.995Z,115
2019-04-26T05:27:42.546Z,115
2019-04-26T05:28:23.100Z,110
2019-04-26T05:29:03.670Z,115
2019-04-26T05:33:50.108Z,110
2019-04-26T05:34:29.699Z,110
2019-04-26T05:35:10.279Z,110
2019-04-26T05:35:51.087Z,115
2019-04-26T05:36:31.573Z,115
2019-04-26T05:37:12.106Z,115
2019-04-26T05:37:53.097Z,115
2019-04-26T05:38:33.232Z,120
2019-04-26T05:45:19.007Z,135
2019-04-26T05:45:59.768Z,135
2019-04-26T05:46:40.338Z,140
2019-04-26T05:47:20.947Z,140
2019-04-26T05:48:10.463Z,145
2019-04-26T05:48:42.137Z,145
2019-04-26T05:49:22.726Z,150
2019-04-26T05:50:03.297Z,150
2019-04-26T05:56:08.631Z,350
2019-04-26T05:56:49.892Z,330
2019-04-26T05:57:29.811Z,565
2019-04-26T05:58:10.403Z,855
2019-04-26T05:58:51.595Z,1150
2019-04-26T05:59:31.542Z,1300
2019-04-26T06:00:12.201Z,1255
2019-04-26T06:00:53.894Z,1280
2019-04-26T06:01:33.406Z,1280
2019-04-26T06:07:38.697Z,1355
2019-04-26T06:08:30.563Z,1330
2019-04-26T06:08:59.841Z,1395
2019-04-26T06:09:40.618Z,1405
2019-04-26T06:10:21.182Z,1420
2019-04-26T06:11:02.675Z,1460
2019-04-26T06:11:42.414Z,1455
2019-04-26T06:12:23.069Z,1440
2019-04-26T06:19:08.946Z,1485
2019-04-26T06:19:49.636Z,1505
2019-04-26T06:20:30.346Z,1580
2019-04-26T06:21:10.860Z,1590
2019-04-26T06:21:52.351Z,1590
2019-04-26T06:22:32.038Z,1620
2019-04-26T06:23:12.589Z,1695
2019-04-26T06:23:53.892Z,1740
2019-04-26T06:29:58.889Z,1700
2019-04-26T06:30:45.193Z,1740
2019-04-26T06:31:20.068Z,1830
2019-04-26T06:32:00.648Z,1800
2019-04-26T06:35:40.095Z,1830
2019-04-26T06:36:20.652Z,1795
2019-04-26T06:37:02.251Z,1755
2019-04-26T06:37:41.768Z,1750
2019-04-26T06:41:04.833Z,1660
2019-04-26T06:41:45.438Z,1635
2019-04-26T06:42:25.988Z,1645
2019-04-26T06:43:06.570Z,1670
2019-04-26T06:43:47.139Z,1680
2019-04-26T06:44:27.713Z,1780
2019-04-26T06:45:08.276Z,1850
2019-04-26T06:45:48.853Z,1850
2019-04-26T06:46:29.440Z,1915
2019-04-26T06:52:34.781Z,1315
2019-04-26T06:53:15.341Z,1910
2019-04-26T06:53:57.129Z,1805
2019-04-26T06:54:36.511Z,1900
2019-04-26T06:55:17.106Z,1915
2019-04-26T06:55:59.052Z,1870
2019-04-26T06:56:38.302Z,1655
2019-04-26T06:57:18.889Z,1805
2019-04-26T06:58:00.781Z,1815
2019-04-26T07:04:04.743Z,815
2019-04-26T07:04:45.376Z,1805
2019-04-26T07:05:25.924Z,1900
2019-04-26T07:06:06.627Z,1890
2019-04-26T07:06:47.084Z,1875
2019-04-26T07:07:27.665Z,860
2019-04-26T07:08:09.160Z,1395
2019-04-26T07:08:56.982Z,630
2019-04-26T07:09:29.463Z,470
2019-04-26T07:15:34.805Z,360
2019-04-26T07:16:21.995Z,315
2019-04-26T07:16:56.018Z,335
2019-04-26T07:17:36.698Z,340
2019-04-26T07:18:17.286Z,310
2019-04-26T07:18:57.884Z,385
2019-04-26T07:19:38.489Z,285
2019-04-26T07:20:19.103Z,390
2019-04-26T07:27:05.266Z,220
2019-04-26T07:27:45.771Z,235
2019-04-26T07:28:26.353Z,255
2019-04-26T07:29:07.118Z,270
2019-04-26T07:29:47.455Z,280
2019-04-26T07:30:28.063Z,300
2019-04-26T07:31:08.615Z,355
2019-04-26T07:31:49.172Z,660
2019-04-26T07:32:29.746Z,685
2019-04-26T07:38:34.848Z,800
2019-04-26T07:39:20.158Z,760
2019-04-26T07:39:55.984Z,520
2019-04-26T07:40:36.553Z,785
2019-04-26T07:41:17.126Z,645
2019-04-26T07:41:57.720Z,550
2019-04-26T07:42:38.291Z,640
2019-04-26T07:43:18.895Z,545
2019-04-26T07:43:59.476Z,730
2019-04-26T07:50:05.016Z,395
2019-04-26T07:50:45.274Z,455
2019-04-26T07:51:25.852Z,405
2019-04-26T07:52:06.509Z,435
2019-04-26T07:52:47.002Z,410
2019-04-26T07:53:27.618Z,405
2019-04-26T07:54:08.945Z,345
2019-04-26T07:54:48.802Z,325
2019-04-26T07:55:29.412Z,335
2019-04-26T08:01:34.777Z,290
2019-04-26T08:02:15.865Z,290
2019-04-26T08:02:55.958Z,285
2019-04-26T08:03:36.541Z,265
2019-04-26T08:04:17.123Z,260
2019-04-26T08:04:57.716Z,250
2019-04-26T08:05:38.278Z,235
2019-04-26T08:06:18.839Z,230
2019-04-26T08:06:59.460Z,225
2019-04-26T08:13:06.000Z,205
2019-04-26T08:13:45.374Z,210
2019-04-26T08:14:25.972Z,220
2019-04-26T08:15:06.564Z,235
2019-04-26T08:15:47.193Z,230
2019-04-26T08:16:27.817Z,245
2019-04-26T08:17:08.396Z,240
2019-04-26T08:17:49.034Z,245
2019-04-26T08:18:29.637Z,250
2019-04-26T08:24:35.106Z,285
2019-04-26T08:25:17.578Z,295
2019-04-26T08:25:56.315Z,305
2019-04-26T08:26:36.861Z,320
2019-04-26T08:27:23.053Z,290
2019-04-26T08:27:58.001Z,290
2019-04-26T08:28:38.566Z,285
2019-04-26T08:29:19.141Z,285
2019-04-26T08:30:03.277Z,275
2019-04-26T08:36:06.046Z,210
2019-04-26T08:36:45.786Z,205
2019-04-26T08:37:26.371Z,200
2019-04-26T08:38:13.451Z,195
2019-04-26T08:38:48.737Z,195
2019-04-26T08:39:32.661Z,195
2019-04-26T08:40:08.770Z,190
2019-04-26T08:40:49.354Z,190
2019-04-26T08:46:56.924Z,185
2019-04-26T08:47:35.273Z,190
2019-04-26T08:48:15.854Z,205
2019-04-26T08:48:58.068Z,220
2019-04-26T08:49:39.038Z,215
2019-04-26T08:50:17.760Z,255
2019-04-26T08:50:58.227Z,265
2019-04-26T08:51:38.806Z,265
2019-04-26T08:52:19.428Z,235
2019-04-26T08:59:05.208Z,150
2019-04-26T08:59:45.798Z,145
2019-04-26T09:00:26.359Z,140
2019-04-26T09:01:06.941Z,140
2019-04-26T09:01:47.563Z,135
2019-04-26T09:02:28.120Z,135
2019-04-26T09:03:11.477Z,135
2019-04-26T09:03:49.292Z,130
2019-04-26T09:10:35.205Z,135
2019-04-26T09:11:24.045Z,135
2019-04-26T09:11:59.653Z,140
2019-04-26T09:12:36.912Z,140
2019-04-26T09:13:17.479Z,145
2019-04-26T09:13:58.071Z,155
2019-04-26T09:14:38.675Z,200
2019-04-26T09:15:19.265Z,210
2019-04-26T09:22:12.670Z,145
2019-04-26T09:22:45.700Z,130
2019-04-26T09:23:26.273Z,120
2019-04-26T09:24:08.344Z,120
2019-04-26T09:24:47.424Z,115
2019-04-26T09:25:30.164Z,115
2019-04-26T09:26:12.433Z,115
2019-04-26T09:26:49.177Z,115
2019-04-26T09:27:29.752Z,115
2019-04-26T09:33:35.851Z,140
2019-04-26T09:34:16.000Z,145
2019-04-26T09:34:56.625Z,145
2019-04-26T09:35:37.234Z,150
2019-04-26T09:36:18.162Z,150
2019-04-26T09:36:58.454Z,150
2019-04-26T09:37:39.169Z,150
2019-04-26T09:43:44.881Z,160
2019-04-26T09:44:25.482Z,155
2019-04-26T09:45:06.106Z,155
2019-04-26T09:45:48.040Z,160
2019-04-26T09:46:27.261Z,155
2019-04-26T09:47:07.854Z,155
2019-04-26T09:47:48.502Z,160
2019-04-26T09:48:29.106Z,155
2019-04-26T09:54:34.728Z,165
2019-04-26T09:55:15.406Z,165
2019-04-26T09:55:56.194Z,160
2019-04-26T09:56:37.170Z,165
2019-04-26T10:00:16.627Z,165
2019-04-26T10:00:57.228Z,155
2019-04-26T10:01:37.853Z,155
2019-04-26T10:02:18.439Z,180
2019-04-26T10:05:01.574Z,185
2019-04-26T10:05:42.177Z,185
2019-04-26T10:06:26.058Z,185
2019-04-26T10:07:04.178Z,190
2019-04-26T10:07:44.297Z,200
2019-04-26T10:08:25.024Z,210
2019-04-26T10:09:05.702Z,210
2019-04-26T10:15:11.610Z,190
2019-04-26T10:15:52.230Z,185
2019-04-26T10:16:33.437Z,185
2019-04-26T10:17:15.535Z,180
2019-04-26T10:17:54.074Z,185
2019-04-26T10:18:34.700Z,175
2019-04-26T10:19:15.297Z,170
2019-04-26T10:19:55.902Z,165
2019-04-26T10:26:01.327Z,140
2019-04-26T10:26:41.933Z,145
2019-04-26T10:27:22.533Z,140
2019-04-26T10:28:03.205Z,140
2019-04-26T10:28:46.660Z,145
2019-04-26T10:29:25.599Z,145
2019-04-26T10:30:08.804Z,145
2019-04-26T10:30:45.707Z,140
2019-04-26T10:36:51.216Z,115
2019-04-26T10:37:39.131Z,115
2019-04-26T10:38:12.502Z,115
2019-04-26T10:38:54.403Z,115
2019-04-26T10:39:36.671Z,110
2019-04-26T10:40:14.371Z,110
2019-04-26T10:40:55.022Z,110
2019-04-26T10:41:35.682Z,110
2019-04-26T10:42:16.262Z,110
2019-04-26T10:47:41.352Z,105
2019-04-26T10:48:23.233Z,105
2019-04-26T10:49:09.026Z,105
2019-04-26T10:49:43.278Z,105
2019-04-26T10:50:23.889Z,105
2019-04-26T10:51:07.256Z,105
2019-04-26T10:51:45.195Z,105
2019-04-26T10:52:25.888Z,100
2019-04-26T10:58:35.716Z,105
2019-04-26T10:59:12.359Z,105
2019-04-26T10:59:52.990Z,105
2019-04-26T11:00:33.502Z,100
2019-04-26T11:01:14.189Z,100
2019-04-26T11:01:54.785Z,100
2019-04-26T11:02:35.498Z,100
2019-04-26T11:03:16.152Z,100
2019-04-26T11:09:21.443Z,100
2019-04-26T11:10:02.974Z,100
2019-04-26T11:10:48.697Z,100
2019-04-26T11:11:23.297Z,100
2019-04-26T11:12:03.860Z,100
2019-04-26T11:12:44.768Z,100
2019-04-26T11:13:25.039Z,100
2019-04-26T11:14:05.635Z,95
2019-04-26T11:14:46.224Z,100
2019-04-26T11:20:51.725Z,95
2019-04-26T11:21:32.373Z,95
2019-04-26T11:22:12.956Z,95
2019-04-26T11:22:53.559Z,95
2019-04-26T11:23:34.137Z,95
2019-04-26T11:24:15.099Z,95
2019-04-26T11:24:55.264Z,95
2019-04-26T11:25:35.851Z,100
2019-04-26T11:32:21.549Z,100
2019-04-26T11:33:02.128Z,100
2019-04-26T11:33:44.790Z,100
2019-04-26T11:34:25.014Z,100
2019-04-26T11:35:04.163Z,100
2019-04-26T11:35:44.725Z,100
2019-04-26T11:36:25.290Z,100
2019-04-26T11:37:05.851Z,105
2019-04-26T11:43:52.802Z,100
2019-04-26T11:44:32.111Z,115
2019-04-26T11:45:14.550Z,115
2019-04-26T11:46:03.693Z,115
2019-04-26T11:46:44.138Z,120
2019-04-26T11:47:14.386Z,120
2019-04-26T11:47:56.390Z,115
2019-04-26T11:48:35.543Z,120
2019-04-26T11:49:16.105Z,110
2019-04-26T11:55:21.305Z,120
2019-04-26T11:56:04.418Z,115
2019-04-26T11:56:42.469Z,115
2019-04-26T11:57:23.073Z,125
2019-04-26T11:58:03.673Z,125
2019-04-26T11:58:44.289Z,125
2019-04-26T11:59:26.980Z,120
2019-04-26T12:00:06.547Z,120
2019-04-26T12:00:45.975Z,120
2019-04-26T12:07:31.672Z,135
2019-04-26T12:08:12.231Z,135
2019-04-26T12:08:52.818Z,130
2019-04-26T12:09:33.386Z,135
2019-04-26T12:10:13.958Z,130
2019-04-26T12:10:54.511Z,125
2019-04-26T12:11:35.361Z,125
2019-04-26T12:12:15.650Z,120
2019-04-26T12:13:05.382Z,120
2019-04-26T12:19:01.436Z,100
2019-04-26T12:19:42.001Z,100
2019-04-26T12:20:26.763Z,100
2019-04-26T12:21:03.155Z,100
2019-04-26T12:21:43.726Z,105
2019-04-26T12:22:24.301Z,105
2019-04-26T12:23:04.867Z,100
2019-04-26T12:23:45.441Z,100
2019-04-26T12:24:29.527Z,105
2019-04-26T12:30:31.314Z,100
2019-04-26T12:31:14.897Z,105
2019-04-26T12:31:52.444Z,115
2019-04-26T12:32:32.994Z,95
2019-04-26T12:33:13.554Z,100
2019-04-26T12:33:54.136Z,90
2019-04-26T12:34:34.790Z,90
2019-04-26T12:35:15.365Z,90
2019-04-26T12:35:56.977Z,90
2019-04-26T12:42:43.284Z,130
2019-04-26T12:43:24.431Z,135
2019-04-26T12:44:03.227Z,140
2019-04-26T12:44:43.292Z,140
2019-04-26T12:45:23.878Z,135
2019-04-26T12:46:04.450Z,125
2019-04-26T12:46:45.033Z,125
2019-04-26T12:47:25.596Z,115
2019-04-26T12:48:07.974Z,100
2019-04-26T12:54:11.335Z,95
2019-04-26T12:54:51.909Z,80
2019-04-26T12:55:32.550Z,75
2019-04-26T12:56:13.139Z,80
2019-04-26T12:56:53.695Z,75
2019-04-26T12:57:36.389Z,80
2019-04-26T12:58:15.367Z,90
2019-04-26T12:58:55.600Z,90
2019-04-26T12:59:43.822Z,95
2019-04-26T13:05:41.415Z,130
2019-04-26T13:06:21.943Z,120
2019-04-26T13:07:06.783Z,125
2019-04-26T13:07:44.352Z,130
2019-04-26T13:11:22.502Z,130
2019-04-26T13:12:03.067Z,115
2019-04-26T13:12:43.615Z,110
2019-04-26T13:13:24.204Z,115
2019-04-26T13:16:47.059Z,160
2019-04-26T13:17:31.246Z,155
2019-04-26T13:18:11.163Z,140
2019-04-26T13:18:48.924Z,135
2019-04-26T13:19:29.485Z,130
2019-04-26T13:20:10.053Z,140
2019-04-26T13:20:50.610Z,145
2019-04-26T13:21:33.012Z,145
2019-04-26T13:22:12.452Z,140
2019-04-26T13:28:20.103Z,115
2019-04-26T13:28:58.799Z,115
2019-04-26T13:29:38.815Z,115
2019-04-26T13:30:32.243Z,115
2019-04-26T13:31:02.151Z,125
2019-04-26T13:31:40.614Z,115
2019-04-26T13:32:21.212Z,115
2019-04-26T13:33:01.776Z,130
2019-04-26T13:39:07.410Z,115
2019-04-26T13:39:51.186Z,135
2019-04-26T13:40:29.467Z,160
2019-04-26T13:41:09.164Z,160
2019-04-26T13:42:01.804Z,170
2019-04-26T13:42:30.449Z,165
2019-04-26T13:43:10.975Z,160
2019-04-26T13:43:51.537Z,170
2019-04-26T13:44:32.276Z,175
2019-04-26T13:50:37.332Z,180
2019-04-26T13:51:17.893Z,180
2019-04-26T13:51:58.468Z,180
2019-04-26T13:52:39.039Z,180
2019-04-26T13:53:22.171Z,180
2019-04-26T13:54:00.212Z,175
2019-04-26T13:54:40.801Z,175
2019-04-26T13:55:21.361Z,170
2019-04-26T13:56:03.335Z,165
2019-04-26T14:02:11.559Z,165
2019-04-26T14:02:47.720Z,165
2019-04-26T14:03:31.507Z,165
2019-04-26T14:04:09.093Z,170
2019-04-26T14:04:49.522Z,170
2019-04-26T14:05:30.096Z,170
2019-04-26T14:06:10.661Z,175
2019-04-26T14:06:51.220Z,175
2019-04-26T14:07:32.219Z,175
2019-04-26T14:10:57.356Z,175
2019-04-26T14:11:38.027Z,175
2019-04-26T14:12:19.160Z,180
2019-04-26T14:13:00.181Z,180
2019-04-26T14:13:40.772Z,180
2019-04-26T14:14:21.350Z,180
2019-04-26T14:15:04.453Z,180
2019-04-26T14:19:39.926Z,145
2019-04-26T14:20:23.242Z,160
2019-04-26T14:21:04.462Z,150
2019-04-26T14:21:45.020Z,155
2019-04-26T14:22:25.841Z,165
2019-04-26T14:23:07.495Z,160
2019-04-26T14:25:55.953Z,155
2019-04-26T14:27:23.152Z,155
2019-04-26T14:28:05.604Z,150
2019-04-26T14:28:48.134Z,145
2019-04-26T14:30:53.761Z,145
2019-04-26T14:31:35.148Z,140
2019-04-26T14:32:16.645Z,140
2019-04-26T14:36:17.804Z,140
2019-04-26T14:37:06.136Z,135
2019-04-26T14:37:38.096Z,140
2019-04-26T14:38:27.491Z,140
2019-04-26T14:39:05.810Z,140
2019-04-26T14:41:07.763Z,120
2019-04-26T14:41:56.894Z,115
2019-04-26T14:43:58.635Z,110
2019-04-26T14:44:49.113Z,100
2019-04-26T14:46:48.797Z,90
2019-04-26T14:47:31.686Z,95
2019-04-26T14:48:20.378Z,90
2019-04-26T14:50:23.276Z,120
2019-04-26T14:52:28.995Z,105
2019-04-26T14:53:10.318Z,100
2019-04-26T14:53:51.677Z,105
2019-04-26T14:59:12.186Z,80
2019-04-26T14:59:56.570Z,85
2019-04-26T15:00:36.416Z,80
2019-04-26T15:01:17.915Z,80
2019-04-26T15:02:00.155Z,75
2019-04-26T15:04:46.292Z,70
2019-04-26T15:05:27.907Z,70
2019-04-26T15:06:10.382Z,70
2019-04-26T15:08:56.466Z,70
2019-04-26T15:09:39.003Z,70
2019-04-26T15:11:53.010Z,70
2019-04-26T15:12:27.139Z,70
2019-04-26T15:13:15.301Z,70
2019-04-26T15:13:50.152Z,70
2019-04-26T15:15:56.193Z,65
2019-04-26T15:16:41.383Z,70
2019-04-26T15:17:24.663Z,65
2019-04-26T15:19:26.566Z,60
2019-04-26T15:20:09.069Z,60
2019-04-26T15:20:53.042Z,60
2019-04-26T15:22:56.440Z,110
2019-04-26T15:23:38.764Z,125
2019-04-26T15:24:20.332Z,130
2019-04-26T15:27:07.401Z,130
2019-04-26T15:30:48.644Z,125
2019-04-26T15:31:32.721Z,125
2019-04-26T15:32:13.049Z,125
2019-04-26T15:32:56.017Z,125
2019-04-26T15:33:38.099Z,125
2019-04-26T15:35:02.483Z,125
2019-04-26T15:35:45.780Z,125
2019-04-26T15:38:40.919Z,125
2019-04-26T15:39:19.765Z,125
2019-04-26T15:39:58.248Z,120
2019-04-26T15:40:37.550Z,120
2019-04-26T15:42:49.503Z,120
2019-04-26T15:43:27.274Z,115
2019-04-26T15:45:38.625Z,115
2019-04-26T15:46:16.138Z,115
2019-04-26T15:49:05.095Z,115
2019-04-26T15:49:45.781Z,110
2019-04-26T15:52:33.984Z,110
2019-04-26T15:53:14.963Z,110
2019-04-26T15:56:57.553Z,245
2019-04-26T15:57:40.042Z,270
2019-04-26T15:58:21.605Z,275
2019-04-26T15:59:04.704Z,255
2019-04-26T15:59:46.828Z,225
2019-04-26T16:00:32.628Z,200
2019-04-26T16:01:10.773Z,190
2019-04-26T16:01:52.957Z,170
2019-04-26T16:03:59.841Z,100
2019-04-26T16:04:42.371Z,95
2019-04-26T16:05:24.220Z,95
2019-04-26T16:07:29.980Z,90
2019-04-26T16:08:13.011Z,90
2019-04-26T16:08:54.945Z,90
2019-04-26T16:10:19.517Z,90
2019-04-26T16:11:00.941Z,90
2019-04-26T16:11:49.303Z,90
2019-04-26T16:17:06.240Z,90
2019-04-26T16:17:44.057Z,90
2019-04-26T16:18:27.085Z,85
2019-04-26T16:19:09.347Z,85
2019-04-26T16:19:50.702Z,85
2019-04-26T16:22:37.363Z,80
2019-04-26T16:23:18.818Z,80
2019-04-26T16:28:42.890Z,70
2019-04-26T16:29:24.390Z,45
2019-04-26T16:30:06.197Z,40
2019-04-26T16:30:47.461Z,40
2019-04-26T16:31:29.566Z,40
2019-04-26T16:32:12.451Z,35
2019-04-26T16:34:16.914Z,35
2019-04-26T16:34:58.354Z,35
2019-04-26T16:35:39.759Z,35
2019-04-26T16:36:21.825Z,35
2019-04-26T16:38:26.260Z,50
2019-04-26T16:39:08.675Z,70
2019-04-26T16:41:16.491Z,50
2019-04-26T16:41:59.223Z,50
2019-04-26T16:42:39.421Z,45
2019-04-26T16:43:36.376Z,50
2019-04-26T16:44:48.111Z,65
2019-04-26T16:45:29.727Z,55
2019-04-26T16:49:27.703Z,70
2019-04-26T16:50:14.693Z,45
2019-04-26T16:50:51.018Z,55
2019-04-26T16:51:33.762Z,55
2019-04-26T16:52:13.941Z,65
2019-04-26T16:52:54.988Z,60
2019-04-26T16:56:36.077Z,55
2019-04-26T16:57:17.096Z,40
2019-04-26T16:57:58.409Z,40
2019-04-26T16:58:42.951Z,40
2019-04-26T16:59:23.733Z,35
2019-04-26T17:00:04.843Z,35
2019-04-26T17:00:51.342Z,30
2019-04-26T17:04:11.209Z,45
2019-04-26T17:04:53.383Z,40
2019-04-26T17:05:47.103Z,30
2019-04-26T17:06:14.472Z,30
2019-04-26T17:09:55.446Z,25
2019-04-26T17:13:23.836Z,25
2019-04-26T17:14:09.920Z,25
2019-04-26T17:14:48.973Z,25
2019-04-26T17:15:28.460Z,25
2019-04-26T17:16:12.815Z,25
2019-04-26T17:18:59.472Z,25
2019-04-26T17:19:39.726Z,25
2019-04-26T17:20:21.057Z,25
2019-04-26T17:23:07.209Z,25
2019-04-26T17:23:48.531Z,20
2019-04-26T17:24:30.491Z,20
2019-04-26T17:29:49.004Z,20
2019-04-26T17:30:32.926Z,20
2019-04-26T17:31:12.449Z,20
2019-04-26T17:31:52.633Z,20
2019-04-26T17:32:35.046Z,15
2019-04-26T17:33:17.162Z,15
2019-04-26T17:36:03.487Z,15
2019-04-26T17:39:47.424Z,15
2019-04-26T17:40:30.027Z,10
2019-04-26T17:41:10.802Z,10
2019-04-26T17:41:53.073Z,10
2019-04-26T17:42:36.286Z,10
2019-04-26T17:43:13.459Z,10
2019-04-26T17:45:18.395Z,10
2019-04-26T17:46:01.104Z,10
2019-04-26T17:46:41.202Z,10
2019-04-26T17:50:21.918Z,10
2019-04-26T17:51:03.210Z,10
2019-04-26T17:51:44.510Z,10
2019-04-26T17:52:29.679Z,10
2019-04-26T17:53:10.598Z,10
2019-04-26T17:53:49.356Z,10
2019-04-26T17:54:42.412Z,10
2019-04-26T17:58:09.936Z,5
2019-04-26T17:58:51.126Z,5
2019-04-26T18:00:46.598Z,5
2019-04-26T18:01:42.665Z,5
2019-04-26T18:05:08.430Z,5
2019-04-26T18:05:56.924Z,5
2019-04-26T18:06:30.913Z,5
2019-04-26T18:07:34.556Z,5
2019-04-26T18:07:58.301Z,5
2019-04-26T18:08:40.918Z,5
2019-04-26T18:09:37.888Z,5
2019-04-26T18:12:43.281Z,5
2019-04-26T18:13:24.561Z,5
2019-04-26T18:14:07.057Z,5
2019-04-26T18:14:47.223Z,0
2019-04-26T18:18:14.253Z,0
2019-04-26T18:18:55.972Z,0
2019-04-26T18:19:36.054Z,0
2019-04-26T18:20:17.059Z,0
2019-04-26T18:24:23.415Z,0
2019-04-26T18:25:04.186Z,0
2019-04-26T18:25:44.981Z,0
2019-04-26T18:26:25.030Z,0
2019-04-26T18:27:05.656Z,0
2019-04-26T18:27:46.244Z,0
2019-04-26T18:28:26.829Z,0
2019-04-26T18:29:07.525Z,0
2019-04-26T18:34:35.018Z,0
2019-04-26T18:35:16.598Z,0
2019-04-26T18:35:57.356Z,0
2019-04-26T18:36:34.327Z,0
2019-04-26T18:37:14.898Z,0
2019-04-26T18:37:55.534Z,0